This is the latest recevied weather packets stored in our database for station/object EA4BCR. If no packets are shown the sender has not sent any weather packets the latest 10 day(s).
| Time | Temp. | Humidity | Pressure | Rain* | Wind** | Luminosity | Snow |
|---|---|---|---|---|---|---|---|
| 1787993416 | 20.56° C | 44% | 1019.5 hPa | - | - | - | - |
| 1787992816 | 20° C | 46% | 1019.6 hPa | - | - | - | - |
| 1787992216 | 19.44° C | 46% | 1019.7 hPa | - | - | - | - |
| 1787991616 | 17.78° C | 49% | 1020.3 hPa | - | - | - | - |
| 1787991016 | 17.78° C | 49% | 1020.3 hPa | - | - | - | - |
| 1787990417 | 17.22° C | 49% | 1020.6 hPa | - | - | - | - |
| 1787989816 | 16.67° C | 52% | 1020.8 hPa | - | - | - | - |
| 1787989216 | 16.11° C | 51% | 1021 hPa | - | - | - | - |
| 1787988616 | 15.56° C | 54% | 1021.2 hPa | - | - | - | - |
| 1787988016 | 15° C | 55% | 1021.4 hPa | - | - | - | - |
| 1787987416 | 15° C | 56% | 1021.6 hPa | - | - | - | - |
| 1787986816 | 14.44° C | 56% | 1021.6 hPa | - | - | - | - |
| 1787986216 | 13.89° C | 60% | 1021.9 hPa | - | - | - | - |
| 1787985616 | 12.78° C | 58% | 1022.1 hPa | - | - | - | - |
| 1787985016 | 12.22° C | 59% | 1022.3 hPa | - | - | - | - |
| 1787984416 | 12.22° C | 60% | 1022.3 hPa | - | - | - | - |
| 1787983816 | 12.22° C | 60% | 1022.5 hPa | - | - | - | - |
| 1787983216 | 11.67° C | 61% | 1022.5 hPa | - | - | - | - |
| 1787982616 | 11.11° C | 61% | 1022.6 hPa | - | - | - | - |
| 1787982016 | 11.11° C | 62% | 1022.6 hPa | - | - | - | - |
| 1787981416 | 11.11° C | 60% | 1022.5 hPa | - | - | - | - |
| 1787980816 | 11.67° C | 59% | 1022.3 hPa | - | - | - | - |
| 1787980216 | 11.67° C | 58% | 1022.3 hPa | - | - | - | - |
| 1787979616 | 11.67° C | 58% | 1022.3 hPa | - | - | - | - |
| 1787979016 | 11.67° C | 57% | 1022.3 hPa | - | - | - | - |
* Rain since midnight (hover to see other rain measurements)
** Current wind speed in m/s (hover to see current wind gust speed)